Terminal Aerodrome Forecast
Issued by NWS Tuscon, AZ

Home | Current Version | Previous Version | Text Only | Print | Product List | Glossary On
Versions: 1 2 3 4 5 6 7 8 9 10 11 12 13 14 15 16 17 18 19 20 21
000
FTUS45 KTWC 211900 AAA
TAFTUS
TAF AMD
KTUS 211916Z 2119/2218 30008KT P6SM VCSH SCT070 OVC120
     FM220300 23007KT P6SM SCT070 BKN120
     FM220600 15006KT P6SM SCT120 SCT200=

USA.gov is the U.S. government's official web portal to all federal, state and local government web resources and services.